Canal Winchester, OH (43110)

1:13 AM EST on December 06, 2016 (GMT -0500)
Lehman Estates | | Change Station

Elev 754 ft 39.86 °N, 82.82 °W | Updated 4 seconds ago

Clear
Clear
35.1 °F
Feels Like 31 °F
N
5.0
Wind Variable Wind from ESE
Gusts 9.0 mph

Today
High -- | Low -- °F
--% Chance of Precip.
Yesterday
High -- | Low -- °F
Precip. -- in
Pressure 29.93 in
Visibility 10.0 miles
Clouds Clear
Windchill 31 °F
Dew Point 31 °F
Humidity 84%
Rainfall 0.00 in
Snow Depth Not available.
7:38 AM 5:06 PM
Waxing Crescent, 38% visible
METAR KLCK 060555Z AUTO 07010KT 10SM CLR 01/M01 A2993 RMK AO2 T00061010
Pressure 29.93 in
Visibility 10.0 miles
Clouds Clear
Windchill 31 °F
Dew Point 31 °F
Humidity 84%
Rainfall 0.00 in
Snow Depth Not available.
7:38 AM 5:06 PM
Waxing Crescent, 38% visible
METAR KLCK 060555Z AUTO 07010KT 10SM CLR 01/M01 A2993 RMK AO2 T00061010

10-Day Weather Forecast

Almanac

Astronomy

Dec. 06, 2016 Rise Set
Actual Time
Civil Twilight
Nautical Twilight
Astronomical Twilight
Moon
Length of Visible Light
Length of Day
Tomorrow will be .
, % of the Moon is Illuminated

Today's Extremes

State Highs State Lows

Community

WunderPhotos

Upload Photos

1,955,932 photos uploaded!

WunderBlog® & News

Nearby

Air Quality

  Air Quality AQ Index Pollutant
Not available.

Snow Depth

Station Depth Elevation

Earthquake Activity

City Distance Mag. Time & Date
Minimum magnitude displayed is 2.5.

Coastal Water Temperatures

Place Temperature

Stations

Nearby Weather Stations

Station Location Temp. Windchill Dew Point Humidity Wind Precip. Elev Updated Type
                   

Watches & Warnings

There are currently no watches in effect.